Time;durP1;ratioP1;P1;durP2;ratioP2;P2;SDS_P1;SDS_P2;PMS_P1;PMS_P2;Temp;Humidity;BMP_temperature;BMP_pressure;BME280_temperature;BME280_humidity;BME280_pressure;Samples;Min_cycle;Max_cycle;Signal;HPM_P1;HPM_P2
2023/03/06 00:00:35;;;;;;;17.87;9.20;;;2.40;99.90;;;;;;480254;246;27859;-76
2023/03/06 00:02:36;;;;;;;12.80;8.63;;;2.40;99.90;;;;;;477065;248;27347;-78
2023/03/06 00:04:37;;;;;;;13.35;9.27;;;2.40;99.90;;;;;;480017;247;27378;-77
2023/03/06 00:06:39;;;;;;;10.55;7.72;;;2.30;99.90;;;;;;480247;247;27437;-77
2023/03/06 00:08:40;;;;;;;12.98;8.23;;;2.30;99.90;;;;;;477062;248;27703;-76
2023/03/06 00:10:41;;;;;;;13.18;8.32;;;2.30;99.90;;;;;;480007;247;27387;-76
2023/03/06 00:12:42;;;;;;;13.62;9.35;;;2.30;99.90;;;;;;477025;248;27363;-76
2023/03/06 00:14:44;;;;;;;14.63;8.25;;;2.30;99.90;;;;;;480227;246;27391;-77
2023/03/06 00:16:45;;;;;;;11.45;8.40;;;2.30;99.90;;;;;;477030;248;27820;-76
2023/03/06 00:18:46;;;;;;;14.40;8.35;;;2.30;99.90;;;;;;480169;247;28194;-76
2023/03/06 00:20:47;;;;;;;12.02;9.20;;;2.30;99.90;;;;;;477033;248;27891;-77
2023/03/06 00:22:49;;;;;;;11.10;8.57;;;2.30;99.90;;;;;;480174;247;27503;-77
2023/03/06 00:24:50;;;;;;;11.85;9.35;;;2.30;99.90;;;;;;477012;248;27315;-78
2023/03/06 00:26:51;;;;;;;13.30;8.52;;;2.30;99.90;;;;;;480231;246;27463;-76
2023/03/06 00:28:52;;;;;;;12.82;8.93;;;2.30;99.90;;;;;;476994;248;27339;-77
2023/03/06 00:30:54;;;;;;;13.80;9.43;;;2.30;99.90;;;;;;480190;247;27558;-76
2023/03/06 00:32:55;;;;;;;13.30;8.80;;;2.30;99.90;;;;;;480279;247;27459;-77
2023/03/06 00:34:56;;;;;;;13.05;8.00;;;2.30;99.90;;;;;;477062;248;27320;-76
2023/03/06 00:36:57;;;;;;;13.45;9.15;;;2.30;99.90;;;;;;480207;246;27995;-76
2023/03/06 00:38:59;;;;;;;12.65;8.38;;;2.30;99.90;;;;;;477018;248;28669;-76
2023/03/06 00:41:00;;;;;;;13.62;8.68;;;2.30;99.90;;;;;;477063;247;27818;-76
2023/03/06 00:43:01;;;;;;;13.93;8.52;;;2.30;99.90;;;;;;480197;246;27417;-76
2023/03/06 00:45:02;;;;;;;16.95;8.95;;;2.30;99.90;;;;;;477044;248;27318;-76
2023/03/06 00:47:04;;;;;;;11.88;7.80;;;2.30;99.90;;;;;;480218;246;27431;-76
2023/03/06 00:49:05;;;;;;;11.50;8.50;;;2.30;99.90;;;;;;477002;248;27392;-77
2023/03/06 00:51:06;;;;;;;13.07;8.65;;;2.20;99.90;;;;;;480234;246;27407;-77
2023/03/06 00:53:09;;;;;;;15.68;9.38;;;2.20;99.90;;;;;;476996;249;27395;-77
2023/03/06 00:55:09;;;;;;;19.77;9.20;;;2.20;99.90;;;;;;480014;247;27503;-76
2023/03/06 00:57:10;;;;;;;12.63;8.70;;;2.20;99.90;;;;;;480205;247;27934;-77
2023/03/06 00:59:11;;;;;;;16.73;8.70;;;2.20;99.90;;;;;;477045;248;27918;-76
2023/03/06 01:01:12;;;;;;;10.70;7.82;;;2.20;99.90;;;;;;480253;246;27834;-77
2023/03/06 01:03:14;;;;;;;13.38;8.93;;;2.20;99.90;;;;;;477053;248;27339;-77
2023/03/06 01:05:15;;;;;;;14.48;8.75;;;2.20;99.90;;;;;;480223;246;27395;-76
2023/03/06 01:07:16;;;;;;;13.07;9.45;;;2.20;99.90;;;;;;480203;247;27435;-76
2023/03/06 01:09:17;;;;;;;12.43;8.27;;;2.20;99.90;;;;;;477030;248;27778;-76
2023/03/06 01:11:19;;;;;;;14.55;9.00;;;2.20;99.90;;;;;;480225;247;27435;-77
2023/03/06 01:13:20;;;;;;;11.40;8.18;;;2.20;99.90;;;;;;477034;248;27381;-76
2023/03/06 01:15:21;;;;;;;13.10;8.55;;;2.20;99.90;;;;;;480092;247;27451;-76
2023/03/06 01:17:22;;;;;;;15.48;9.45;;;2.20;99.90;;;;;;480234;247;28279;-78
2023/03/06 01:19:24;;;;;;;15.55;9.38;;;2.20;99.90;;;;;;480248;247;28101;-77
2023/03/06 01:21:25;;;;;;;19.05;9.63;;;2.20;99.90;;;;;;477060;248;28941;-76
2023/03/06 01:23:26;;;;;;;12.50;9.00;;;2.20;99.90;;;;;;480200;246;27427;-77
2023/03/06 01:25:27;;;;;;;15.13;9.88;;;2.20;99.90;;;;;;477030;247;27403;-76
2023/03/06 01:27:29;;;;;;;12.93;8.80;;;2.10;99.90;;;;;;480195;246;27520;-76
2023/03/06 01:29:30;;;;;;;14.32;9.30;;;2.20;99.90;;;;;;477049;248;27395;-76
2023/03/06 01:31:31;;;;;;;13.38;9.40;;;2.20;99.90;;;;;;480206;246;27397;-76
2023/03/06 01:33:32;;;;;;;13.00;9.35;;;2.10;99.90;;;;;;477050;248;27435;-76
2023/03/06 01:35:34;;;;;;;13.13;9.23;;;2.20;99.90;;;;;;480227;247;27490;-78
2023/03/06 01:37:35;;;;;;;13.77;9.30;;;2.20;99.90;;;;;;477003;248;27981;-76
2023/03/06 01:39:36;;;;;;;13.32;8.95;;;2.10;99.90;;;;;;480223;246;29020;-77
2023/03/06 01:41:37;;;;;;;12.48;8.68;;;2.20;99.90;;;;;;477047;247;27368;-76
2023/03/06 01:43:41;;;;;;;15.32;10.90;;;2.10;99.90;;;;;;480224;246;27439;-76
2023/03/06 01:45:40;;;;;;;16.30;9.82;;;2.10;99.90;;;;;;476929;249;27376;-77
2023/03/06 01:47:43;;;;;;;14.27;10.30;;;2.10;99.90;;;;;;480193;246;27430;-76
2023/03/06 01:49:42;;;;;;;13.40;9.75;;;2.10;99.90;;;;;;476972;248;27359;-76
2023/03/06 01:51:44;;;;;;;16.50;9.85;;;2.10;99.90;;;;;;480235;247;27395;-75
2023/03/06 01:53:45;;;;;;;15.55;10.15;;;2.10;99.90;;;;;;477040;248;27374;-76
2023/03/06 01:55:46;;;;;;;16.00;10.07;;;2.10;99.90;;;;;;480229;246;27951;-76
2023/03/06 01:57:47;;;;;;;14.35;9.35;;;2.10;99.90;;;;;;477050;248;27802;-77
2023/03/06 01:59:51;;;;;;;17.12;10.50;;;2.10;99.90;;;;;;480153;247;27521;-76
2023/03/06 02:01:50;;;;;;;16.55;9.90;;;2.10;99.90;;;;;;480100;247;27463;-76
2023/03/06 02:03:51;;;;;;;16.98;9.93;;;2.10;99.90;;;;;;480252;247;27439;-76
2023/03/06 02:05:53;;;;;;;15.85;9.80;;;2.10;99.90;;;;;;477016;248;27311;-76
2023/03/06 02:07:54;;;;;;;13.02;8.68;;;2.10;99.90;;;;;;480226;246;27469;-76
2023/03/06 02:09:55;;;;;;;12.50;8.90;;;2.10;99.90;;;;;;477096;248;27446;-76
2023/03/06 02:11:56;;;;;;;11.95;8.35;;;2.00;99.90;;;;;;480259;246;27410;-76
2023/03/06 02:13:58;;;;;;;15.02;8.88;;;2.10;99.90;;;;;;477041;248;27859;-76
2023/03/06 02:15:59;;;;;;;15.30;9.23;;;2.00;99.90;;;;;;480212;246;28606;-76
2023/03/06 02:18:00;;;;;;;13.27;9.48;;;2.00;99.90;;;;;;477060;248;27771;-77
2023/03/06 02:20:01;;;;;;;15.40;9.48;;;2.10;99.90;;;;;;480233;246;27422;-77
2023/03/06 02:22:03;;;;;;;13.00;9.52;;;2.00;99.90;;;;;;477037;248;27300;-76
2023/03/06 02:24:04;;;;;;;17.10;10.48;;;2.10;99.90;;;;;;480222;246;27456;-76
2023/03/06 02:26:05;;;;;;;12.95;8.50;;;2.00;99.90;;;;;;477017;248;27308;-76
2023/03/06 02:28:06;;;;;;;15.50;9.18;;;2.00;99.90;;;;;;480199;247;27471;-76
2023/03/06 02:30:08;;;;;;;13.57;9.80;;;2.00;99.90;;;;;;477028;248;27482;-76
2023/03/06 02:32:09;;;;;;;12.73;9.25;;;2.00;99.90;;;;;;480230;247;27463;-76
2023/03/06 02:34:10;;;;;;;17.58;10.75;;;2.00;99.90;;;;;;477030;248;27839;-77
2023/03/06 02:36:11;;;;;;;13.90;9.27;;;2.00;99.90;;;;;;480197;246;28152;-76
2023/03/06 02:38:13;;;;;;;16.37;10.35;;;2.00;99.90;;;;;;476978;248;27351;-76
2023/03/06 02:40:14;;;;;;;16.02;10.48;;;2.00;99.90;;;;;;480225;246;27427;-78
2023/03/06 02:42:15;;;;;;;16.73;9.52;;;2.00;99.90;;;;;;477045;248;27324;-76
2023/03/06 02:44:16;;;;;;;16.08;10.82;;;2.00;99.90;;;;;;480246;246;27562;-77
2023/03/06 02:46:18;;;;;;;14.98;10.02;;;2.00;99.90;;;;;;477048;248;27394;-77
2023/03/06 02:48:19;;;;;;;14.98;9.63;;;2.00;99.90;;;;;;480231;246;27443;-76
2023/03/06 02:50:20;;;;;;;14.40;9.68;;;2.00;99.90;;;;;;477078;248;27835;-76
2023/03/06 02:52:21;;;;;;;19.67;10.45;;;2.00;99.90;;;;;;480197;247;27947;-76
2023/03/06 02:54:23;;;;;;;15.32;10.50;;;2.00;99.90;;;;;;477049;248;27441;-76
2023/03/06 02:56:24;;;;;;;17.20;10.18;;;2.00;99.90;;;;;;480214;246;27419;-76
2023/03/06 02:58:25;;;;;;;16.10;9.70;;;1.90;99.90;;;;;;477082;248;27432;-78
2023/03/06 03:00:26;;;;;;;15.15;10.10;;;1.90;99.90;;;;;;480228;247;27506;-78
2023/03/06 03:02:28;;;;;;;18.83;10.10;;;2.00;99.90;;;;;;477051;249;27320;-76
2023/03/06 03:04:29;;;;;;;15.18;9.90;;;2.00;99.90;;;;;;480240;246;27430;-76
2023/03/06 03:06:30;;;;;;;16.05;10.35;;;2.00;99.90;;;;;;477033;248;27827;-76
2023/03/06 03:08:31;;;;;;;16.48;10.93;;;2.00;99.90;;;;;;480245;245;27977;-76
2023/03/06 03:10:33;;;;;;;16.52;10.98;;;1.90;99.90;;;;;;477058;248;27363;-76
2023/03/06 03:12:34;;;;;;;18.10;11.15;;;1.90;99.90;;;;;;480239;246;27396;-76
2023/03/06 03:14:35;;;;;;;17.02;10.68;;;2.00;99.90;;;;;;477051;248;27383;-76
2023/03/06 03:16:36;;;;;;;15.93;10.02;;;1.90;99.90;;;;;;480272;246;27499;-76
2023/03/06 03:18:38;;;;;;;15.65;9.50;;;1.90;99.90;;;;;;477092;248;27327;-76
2023/03/06 03:20:39;;;;;;;14.35;10.10;;;2.00;99.90;;;;;;480210;246;27490;-77
2023/03/06 03:22:40;;;;;;;15.18;10.23;;;2.00;99.90;;;;;;477077;248;27776;-76
2023/03/06 03:24:41;;;;;;;14.68;10.30;;;2.00;99.90;;;;;;480231;246;28128;-77
2023/03/06 03:26:43;;;;;;;14.20;9.45;;;2.00;99.90;;;;;;477077;248;27379;-77
2023/03/06 03:28:44;;;;;;;19.55;11.30;;;2.00;99.90;;;;;;480279;246;27396;-76
2023/03/06 03:30:45;;;;;;;14.23;9.90;;;2.00;99.90;;;;;;477074;248;27393;-78
2023/03/06 03:32:46;;;;;;;15.80;10.43;;;2.00;99.90;;;;;;480256;247;27458;-77
2023/03/06 03:34:48;;;;;;;14.48;9.80;;;1.90;99.90;;;;;;477046;248;27382;-75
2023/03/06 03:36:49;;;;;;;16.12;10.27;;;2.00;99.90;;;;;;480211;246;27514;-76
2023/03/06 03:38:50;;;;;;;18.05;11.00;;;2.00;99.90;;;;;;477066;248;27444;-76
2023/03/06 03:40:52;;;;;;;15.27;10.55;;;2.00;99.90;;;;;;480246;246;27937;-76
2023/03/06 03:42:53;;;;;;;16.50;10.35;;;2.00;99.90;;;;;;477082;248;29002;-77
2023/03/06 03:44:54;;;;;;;16.55;11.23;;;2.00;99.90;;;;;;480238;247;27537;-76
2023/03/06 03:46:55;;;;;;;15.40;10.23;;;2.00;99.90;;;;;;477024;247;27312;-77
2023/03/06 03:48:57;;;;;;;20.55;11.25;;;2.00;99.90;;;;;;480221;246;27495;-76
2023/03/06 03:50:58;;;;;;;14.93;9.90;;;2.00;99.90;;;;;;477073;248;27807;-76
2023/03/06 03:52:59;;;;;;;15.90;10.30;;;2.00;99.90;;;;;;480247;246;27450;-75
2023/03/06 03:55:00;;;;;;;17.02;10.05;;;2.00;99.90;;;;;;480219;247;28074;-77
2023/03/06 03:57:02;;;;;;;16.42;10.35;;;2.00;99.90;;;;;;477020;248;27799;-76
2023/03/06 03:59:03;;;;;;;18.45;10.07;;;2.00;99.90;;;;;;480265;246;27874;-77
2023/03/06 04:01:04;;;;;;;15.90;10.55;;;2.00;99.90;;;;;;477065;248;27419;-76
2023/03/06 04:03:05;;;;;;;16.67;10.98;;;1.90;99.90;;;;;;480227;246;27389;-75
2023/03/06 04:05:07;;;;;;;18.87;11.38;;;2.00;99.90;;;;;;477005;248;27386;-77
2023/03/06 04:07:08;;;;;;;18.20;10.80;;;1.90;99.90;;;;;;480219;246;27447;-76
2023/03/06 04:09:09;;;;;;;18.23;11.23;;;1.90;99.90;;;;;;477046;248;27430;-76
2023/03/06 04:11:10;;;;;;;17.08;10.32;;;1.90;99.90;;;;;;480223;246;27966;-76
2023/03/06 04:13:12;;;;;;;14.60;9.18;;;2.00;99.90;;;;;;477027;248;28865;-76
2023/03/06 04:15:13;;;;;;;22.08;11.43;;;2.00;99.90;;;;;;480194;247;27431;-76
2023/03/06 04:17:14;;;;;;;17.37;10.80;;;1.90;99.90;;;;;;477040;248;27351;-76
2023/03/06 04:19:15;;;;;;;20.37;12.63;;;1.90;99.90;;;;;;480228;246;27395;-77
2023/03/06 04:21:17;;;;;;;17.27;11.55;;;1.90;99.90;;;;;;477058;248;27462;-77
2023/03/06 04:23:18;;;;;;;18.00;11.45;;;1.90;99.90;;;;;;480248;246;27395;-76
2023/03/06 04:25:19;;;;;;;17.25;11.00;;;1.90;99.90;;;;;;477040;248;27375;-76
2023/03/06 04:27:20;;;;;;;16.85;10.40;;;1.90;99.90;;;;;;480244;246;28039;-78
2023/03/06 04:29:22;;;;;;;21.67;13.05;;;1.90;99.90;;;;;;477059;248;27783;-76
2023/03/06 04:31:23;;;;;;;20.77;11.35;;;1.90;99.90;;;;;;480184;246;27543;-77
2023/03/06 04:33:24;;;;;;;17.20;11.10;;;1.90;99.90;;;;;;480204;243;27443;-76
2023/03/06 04:35:25;;;;;;;14.90;10.77;;;1.90;99.90;;;;;;477050;248;27355;-76
2023/03/06 04:37:27;;;;;;;17.02;11.52;;;1.90;99.90;;;;;;480258;246;27777;-76
2023/03/06 04:39:28;;;;;;;18.95;11.93;;;1.90;99.90;;;;;;477032;248;27446;-75
2023/03/06 04:41:29;;;;;;;17.75;10.95;;;1.90;99.90;;;;;;480216;246;27561;-77
2023/03/06 04:43:30;;;;;;;17.90;11.20;;;1.90;99.90;;;;;;477026;248;27844;-75
2023/03/06 04:45:32;;;;;;;18.33;10.95;;;1.90;99.90;;;;;;480212;246;27906;-76
2023/03/06 04:47:33;;;;;;;18.45;11.30;;;1.90;99.90;;;;;;477059;248;27382;-78
2023/03/06 04:49:34;;;;;;;17.75;11.30;;;1.90;99.90;;;;;;480247;246;27383;-75
2023/03/06 04:51:36;;;;;;;18.37;11.85;;;1.80;99.90;;;;;;477024;248;27457;-77
2023/03/06 04:53:37;;;;;;;17.12;11.95;;;1.80;99.90;;;;;;480270;246;27407;-76
2023/03/06 04:55:38;;;;;;;19.30;11.68;;;1.80;99.90;;;;;;477067;248;27319;-76
2023/03/06 04:57:39;;;;;;;19.02;12.18;;;1.80;99.90;;;;;;480195;246;27933;-76
2023/03/06 04:59:41;;;;;;;19.90;11.75;;;1.80;99.90;;;;;;477061;249;27795;-76
2023/03/06 05:01:42;;;;;;;17.92;10.93;;;1.90;99.90;;;;;;480253;246;27432;-78
2023/03/06 05:03:43;;;;;;;16.65;10.65;;;1.80;99.90;;;;;;477051;248;27416;-77
2023/03/06 05:05:44;;;;;;;16.62;11.77;;;1.80;99.90;;;;;;480261;246;27407;-76
2023/03/06 05:07:46;;;;;;;18.27;11.38;;;1.80;99.90;;;;;;477091;248;27356;-76
2023/03/06 05:09:47;;;;;;;16.27;10.60;;;1.80;99.90;;;;;;480248;246;28053;-76
2023/03/06 05:11:48;;;;;;;16.27;11.85;;;1.80;99.90;;;;;;480205;247;27436;-76
2023/03/06 05:13:50;;;;;;;18.25;12.10;;;1.80;99.90;;;;;;477031;248;28636;-76
2023/03/06 05:15:51;;;;;;;20.85;13.18;;;1.80;99.90;;;;;;477057;247;27775;-78
2023/03/06 05:17:52;;;;;;;18.55;12.32;;;1.80;99.90;;;;;;480241;246;27513;-77
2023/03/06 05:19:53;;;;;;;19.00;11.68;;;1.80;99.90;;;;;;477052;248;27330;-76
2023/03/06 05:21:54;;;;;;;22.05;13.05;;;1.70;99.90;;;;;;480222;246;27527;-77
2023/03/06 05:23:56;;;;;;;20.33;11.30;;;1.80;99.90;;;;;;477019;248;27430;-77
2023/03/06 05:25:57;;;;;;;21.58;13.35;;;1.70;99.90;;;;;;480235;246;27471;-75
2023/03/06 05:27:58;;;;;;;18.45;12.05;;;1.80;99.90;;;;;;477054;248;27385;-76
2023/03/06 05:29:59;;;;;;;25.85;11.95;;;1.70;99.90;;;;;;480237;246;27967;-77
2023/03/06 05:32:01;;;;;;;18.75;11.80;;;1.80;99.90;;;;;;476984;248;27821;-77
2023/03/06 05:34:02;;;;;;;16.65;11.20;;;1.80;99.90;;;;;;480212;246;27503;-77
2023/03/06 05:36:03;;;;;;;21.50;12.85;;;1.80;99.90;;;;;;477034;248;27395;-76
2023/03/06 05:38:04;;;;;;;21.05;12.40;;;1.80;99.90;;;;;;480226;246;27434;-76
2023/03/06 05:40:08;;;;;;;20.95;12.88;;;1.70;99.90;;;;;;477030;248;27323;-76
2023/03/06 05:42:07;;;;;;;21.98;13.60;;;1.70;99.90;;;;;;480197;246;27528;-76
2023/03/06 05:44:08;;;;;;;19.58;12.85;;;1.70;99.90;;;;;;480221;245;27947;-77
2023/03/06 05:46:09;;;;;;;17.98;11.90;;;1.80;99.90;;;;;;480246;247;27998;-76
2023/03/06 05:48:11;;;;;;;18.45;11.57;;;1.80;99.90;;;;;;477000;248;27435;-76
2023/03/06 05:50:13;;;;;;;21.08;11.88;;;1.80;99.90;;;;;;480164;246;27388;-76
2023/03/06 05:52:16;;;;;;;23.38;12.70;;;1.80;99.90;;;;;;476893;248;27363;-76
2023/03/06 05:54:15;;;;;;;21.92;12.55;;;1.80;99.90;;;;;;480127;246;27494;-76
2023/03/06 05:56:16;;;;;;;21.08;13.05;;;1.80;99.90;;;;;;480179;247;27404;-76
2023/03/06 05:58:17;;;;;;;21.58;12.63;;;1.80;99.90;;;;;;477018;248;27379;-76
2023/03/06 06:00:18;;;;;;;22.48;12.65;;;1.80;99.90;;;;;;480191;247;27855;-76
2023/03/06 06:02:20;;;;;;;20.45;13.52;;;1.80;99.90;;;;;;476978;248;27945;-77
2023/03/06 06:04:21;;;;;;;15.63;11.12;;;1.80;99.90;;;;;;480169;246;27419;-78
2023/03/06 06:06:22;;;;;;;24.75;13.05;;;1.80;99.90;;;;;;477040;248;27338;-77
2023/03/06 06:08:23;;;;;;;17.52;11.23;;;1.90;99.90;;;;;;480208;246;27430;-77
2023/03/06 06:10:25;;;;;;;20.98;12.82;;;1.80;99.90;;;;;;477016;248;27344;-76
2023/03/06 06:12:26;;;;;;;21.83;11.75;;;1.80;99.90;;;;;;480218;246;27565;-77
2023/03/06 06:14:27;;;;;;;19.35;12.23;;;1.80;99.90;;;;;;477028;248;27324;-78
2023/03/06 06:16:28;;;;;;;23.30;13.43;;;1.80;99.90;;;;;;480225;246;28008;-76
2023/03/06 06:18:30;;;;;;;23.30;13.55;;;1.80;99.90;;;;;;477058;248;27861;-77
2023/03/06 06:20:31;;;;;;;24.45;12.65;;;1.80;99.90;;;;;;480245;246;27474;-76
2023/03/06 06:22:32;;;;;;;18.75;12.07;;;1.70;99.90;;;;;;477032;248;27358;-77
2023/03/06 06:24:33;;;;;;;21.75;12.20;;;1.70;99.90;;;;;;480240;246;27415;-76
2023/03/06 06:26:35;;;;;;;20.50;12.05;;;1.70;99.90;;;;;;477065;248;27324;-77
2023/03/06 06:28:36;;;;;;;20.52;12.63;;;1.70;99.90;;;;;;480247;246;27545;-76
2023/03/06 06:30:37;;;;;;;19.48;11.98;;;1.70;99.90;;;;;;477022;248;27776;-76
2023/03/06 06:32:38;;;;;;;30.33;14.13;;;1.70;99.90;;;;;;480239;246;27918;-76
2023/03/06 06:34:40;;;;;;;20.88;12.52;;;1.70;99.90;;;;;;477013;248;27619;-76
2023/03/06 06:36:41;;;;;;;28.35;14.32;;;1.70;99.90;;;;;;480235;242;27483;-77
2023/03/06 06:38:42;;;;;;;20.20;12.68;;;1.70;99.90;;;;;;477051;248;27347;-77
2023/03/06 06:40:43;;;;;;;21.05;12.75;;;1.70;99.90;;;;;;480201;246;27483;-76
2023/03/06 06:42:45;;;;;;;22.17;13.23;;;1.70;99.90;;;;;;476994;248;27443;-77
2023/03/06 06:44:46;;;;;;;23.55;12.65;;;1.70;99.90;;;;;;480190;242;27395;-76
2023/03/06 06:46:48;;;;;;;24.77;13.13;;;1.80;99.90;;;;;;477024;248;27772;-76
2023/03/06 06:48:48;;;;;;;20.17;12.50;;;1.70;99.90;;;;;;480228;246;27930;-76
2023/03/06 06:50:50;;;;;;;19.62;13.02;;;1.80;99.90;;;;;;480210;247;27543;-77
2023/03/06 06:52:51;;;;;;;21.98;13.50;;;1.80;99.90;;;;;;477018;248;27391;-76
2023/03/06 06:54:52;;;;;;;25.17;14.87;;;1.80;99.90;;;;;;480215;246;27511;-76
2023/03/06 06:56:53;;;;;;;21.85;13.60;;;1.80;99.90;;;;;;477041;248;27336;-76
2023/03/06 06:58:55;;;;;;;22.92;12.02;;;1.80;99.90;;;;;;480197;246;27521;-76
2023/03/06 07:00:56;;;;;;;20.60;13.88;;;1.80;99.90;;;;;;477003;248;27344;-76
2023/03/06 07:02:57;;;;;;;21.12;13.05;;;1.80;99.90;;;;;;480227;246;28010;-77
2023/03/06 07:04:58;;;;;;;24.42;12.57;;;1.80;99.90;;;;;;477042;248;28112;-76
2023/03/06 07:07:00;;;;;;;21.60;13.62;;;1.80;99.90;;;;;;480250;246;27528;-76
2023/03/06 07:09:01;;;;;;;21.33;11.40;;;1.80;99.90;;;;;;477045;248;27458;-77
2023/03/06 07:11:02;;;;;;;22.50;13.15;;;1.80;99.90;;;;;;480205;246;27520;-78
2023/03/06 07:13:03;;;;;;;16.40;11.27;;;1.80;99.90;;;;;;476996;248;27363;-77
2023/03/06 07:15:05;;;;;;;21.35;13.15;;;1.80;99.90;;;;;;480133;247;27541;-77
2023/03/06 07:17:06;;;;;;;19.67;13.27;;;1.90;99.90;;;;;;477048;248;27799;-76
2023/03/06 07:19:07;;;;;;;22.45;13.43;;;1.90;99.90;;;;;;480174;246;29148;-76
2023/03/06 07:21:08;;;;;;;18.40;11.98;;;1.90;99.90;;;;;;477007;248;27428;-76
2023/03/06 07:23:10;;;;;;;20.35;13.05;;;1.90;99.90;;;;;;480196;246;27427;-76
2023/03/06 07:25:11;;;;;;;18.60;12.80;;;1.90;99.90;;;;;;477054;248;27457;-76
2023/03/06 07:27:12;;;;;;;24.25;12.65;;;1.90;99.90;;;;;;480220;246;27395;-75
2023/03/06 07:29:14;;;;;;;19.90;11.80;;;2.00;99.90;;;;;;477024;248;27396;-78
2023/03/06 07:31:15;;;;;;;17.52;10.95;;;2.00;99.90;;;;;;480228;246;27478;-77
2023/03/06 07:33:16;;;;;;;19.80;12.45;;;2.00;99.90;;;;;;477060;248;27824;-76
2023/03/06 07:35:17;;;;;;;21.12;12.65;;;2.10;99.90;;;;;;480183;246;28010;-76
2023/03/06 07:37:19;;;;;;;20.40;12.60;;;2.00;99.90;;;;;;477074;248;27307;-76
2023/03/06 07:39:20;;;;;;;18.92;11.48;;;2.00;99.90;;;;;;480234;246;27533;-76
2023/03/06 07:41:21;;;;;;;22.30;12.35;;;2.00;99.90;;;;;;477019;248;27324;-76
2023/03/06 07:43:22;;;;;;;21.75;12.98;;;2.10;99.90;;;;;;480228;246;27548;-76
2023/03/06 07:45:24;;;;;;;21.55;12.75;;;2.10;99.90;;;;;;477025;248;27407;-76
2023/03/06 07:47:25;;;;;;;24.50;13.05;;;2.10;99.90;;;;;;480237;246;27813;-76
2023/03/06 07:49:26;;;;;;;22.13;13.52;;;2.20;99.90;;;;;;477024;248;27925;-76
2023/03/06 07:51:27;;;;;;;23.15;13.62;;;2.20;99.90;;;;;;480182;246;29805;-76
2023/03/06 07:53:29;;;;;;;19.15;11.82;;;2.20;99.90;;;;;;477015;247;27392;-76
2023/03/06 07:55:30;;;;;;;21.27;12.75;;;2.20;99.90;;;;;;480243;247;27437;-77
2023/03/06 07:57:31;;;;;;;21.58;14.50;;;2.20;99.90;;;;;;477084;248;27474;-77
2023/03/06 07:59:32;;;;;;;21.35;12.32;;;2.20;99.90;;;;;;480238;246;27464;-77
2023/03/06 08:01:35;;;;;;;26.83;15.25;;;2.20;99.90;;;;;;477073;248;27457;-78
2023/03/06 08:03:35;;;;;;;22.62;12.73;;;2.20;99.90;;;;;;480268;246;27899;-76
2023/03/06 08:05:36;;;;;;;24.08;13.25;;;2.20;99.90;;;;;;477057;248;29001;-76
2023/03/06 08:07:37;;;;;;;21.23;12.75;;;2.20;99.90;;;;;;480261;246;27395;-76
2023/03/06 08:09:39;;;;;;;22.02;14.10;;;2.20;99.90;;;;;;477031;248;27315;-77
2023/03/06 08:11:40;;;;;;;21.20;13.38;;;2.20;99.90;;;;;;480212;246;27415;-77
2023/03/06 08:13:41;;;;;;;27.10;13.88;;;2.30;99.90;;;;;;480241;247;27395;-76
2023/03/06 08:15:42;;;;;;;22.05;13.25;;;2.30;99.90;;;;;;477019;248;27445;-77
2023/03/06 08:17:44;;;;;;;21.60;12.95;;;2.30;99.90;;;;;;480227;247;27387;-77
2023/03/06 08:19:45;;;;;;;18.35;11.32;;;2.30;99.90;;;;;;480206;247;27934;-77
2023/03/06 08:21:46;;;;;;;18.60;11.85;;;2.30;99.90;;;;;;477026;248;28887;-77
2023/03/06 08:23:47;;;;;;;24.05;13.40;;;2.30;99.90;;;;;;480243;246;27483;-76
2023/03/06 08:25:49;;;;;;;19.87;13.32;;;2.30;99.90;;;;;;477030;248;27435;-76
2023/03/06 08:27:50;;;;;;;23.80;14.32;;;2.40;99.90;;;;;;480215;247;27542;-75
2023/03/06 08:29:51;;;;;;;26.27;14.85;;;2.40;99.90;;;;;;480216;247;27468;-76
2023/03/06 08:31:52;;;;;;;21.08;12.45;;;2.40;99.90;;;;;;477041;248;27450;-77
2023/03/06 08:33:54;;;;;;;25.85;14.90;;;2.50;99.90;;;;;;480231;246;27872;-76
2023/03/06 08:35:55;;;;;;;22.02;13.23;;;2.50;99.90;;;;;;477035;248;27830;-76
2023/03/06 08:37:56;;;;;;;19.80;12.55;;;2.50;99.90;;;;;;480201;247;27486;-77
2023/03/06 08:39:58;;;;;;;24.52;14.77;;;2.50;99.90;;;;;;480187;247;27454;-77
2023/03/06 08:41:59;;;;;;;22.05;14.10;;;2.50;99.90;;;;;;477055;248;27417;-77
2023/03/06 08:44:00;;;;;;;27.05;15.15;;;2.60;99.90;;;;;;480223;246;27436;-76
2023/03/06 08:46:01;;;;;;;29.37;16.25;;;2.80;99.90;;;;;;476985;248;27351;-77
2023/03/06 08:48:03;;;;;;;26.08;15.60;;;2.90;99.90;;;;;;480219;246;27403;-77
2023/03/06 08:50:04;;;;;;;23.38;14.18;;;2.90;99.90;;;;;;477005;248;27843;-76
2023/03/06 08:52:05;;;;;;;25.55;15.07;;;3.00;99.90;;;;;;480252;247;27916;-77
2023/03/06 08:54:06;;;;;;;23.55;13.88;;;3.00;99.90;;;;;;477066;248;27303;-78
2023/03/06 08:56:08;;;;;;;25.42;15.00;;;3.00;99.90;;;;;;480236;246;27534;-77
2023/03/06 08:58:09;;;;;;;21.08;13.60;;;3.10;99.90;;;;;;477016;248;27319;-80
2023/03/06 09:00:10;;;;;;;19.48;12.80;;;3.10;99.90;;;;;;480234;246;27478;-79
2023/03/06 09:02:11;;;;;;;23.10;14.45;;;3.20;99.90;;;;;;477053;248;27398;-79
2023/03/06 09:04:13;;;;;;;24.63;14.90;;;3.30;99.90;;;;;;480218;246;27448;-76
2023/03/06 09:06:14;;;;;;;21.40;14.00;;;3.20;99.90;;;;;;477037;248;27862;-77
2023/03/06 09:08:15;;;;;;;24.52;14.52;;;3.10;99.90;;;;;;480214;246;28582;-78
2023/03/06 09:10:16;;;;;;;25.90;16.12;;;3.10;99.90;;;;;;477068;248;27326;-77
2023/03/06 09:12:18;;;;;;;28.52;16.08;;;3.10;99.90;;;;;;480197;246;27447;-78
2023/03/06 09:14:19;;;;;;;24.73;15.10;;;3.10;99.90;;;;;;477022;249;27406;-77
2023/03/06 09:16:20;;;;;;;25.73;15.48;;;3.10;99.90;;;;;;480226;246;27530;-76
2023/03/06 09:18:21;;;;;;;20.20;13.32;;;3.10;99.90;;;;;;477046;248;27386;-78
2023/03/06 09:20:23;;;;;;;21.30;14.15;;;3.10;99.90;;;;;;480241;247;27849;-75
2023/03/06 09:22:24;;;;;;;23.25;14.77;;;3.10;99.90;;;;;;477040;248;27834;-76
2023/03/06 09:24:25;;;;;;;22.52;15.30;;;3.00;99.90;;;;;;480236;246;27475;-77
2023/03/06 09:26:26;;;;;;;25.88;15.23;;;3.00;99.90;;;;;;477026;248;27351;-78
2023/03/06 09:28:28;;;;;;;24.73;15.93;;;3.00;99.90;;;;;;477949;246;36486;-77
2023/03/06 09:30:29;;;;;;;23.92;15.18;;;3.00;99.90;;;;;;477053;248;27402;-77
2023/03/06 09:32:30;;;;;;;22.17;15.13;;;2.90;99.90;;;;;;480233;246;27462;-77
2023/03/06 09:34:31;;;;;;;24.10;15.98;;;2.90;99.90;;;;;;477045;248;27766;-77
2023/03/06 09:36:33;;;;;;;23.00;14.70;;;3.00;99.90;;;;;;480219;246;28018;-77
2023/03/06 09:38:34;;;;;;;32.58;15.93;;;2.90;99.90;;;;;;477065;248;27451;-78
2023/03/06 09:40:35;;;;;;;25.17;15.75;;;2.80;99.90;;;;;;480232;247;27397;-77
2023/03/06 09:42:36;;;;;;;24.50;16.00;;;2.80;99.90;;;;;;477032;248;27371;-77
2023/03/06 09:44:39;;;;;;;22.10;14.82;;;2.90;99.90;;;;;;480211;247;27491;-76
2023/03/06 09:46:39;;;;;;;28.65;16.25;;;2.90;99.90;;;;;;476971;248;27462;-77
2023/03/06 09:48:40;;;;;;;24.23;14.95;;;2.90;99.90;;;;;;480248;246;27546;-79
2023/03/06 09:50:42;;;;;;;26.77;15.25;;;3.00;99.90;;;;;;477058;248;27795;-78
2023/03/06 09:52:43;;;;;;;29.92;17.42;;;3.00;99.90;;;;;;480208;247;27921;-78
2023/03/06 09:54:44;;;;;;;27.05;17.15;;;2.90;99.90;;;;;;477020;248;27319;-77
2023/03/06 09:56:45;;;;;;;30.75;17.52;;;2.80;99.90;;;;;;480188;247;27557;-77
2023/03/06 09:58:47;;;;;;;24.20;14.82;;;2.90;99.90;;;;;;477072;248;27355;-78
2023/03/06 10:00:48;;;;;;;25.70;15.70;;;3.00;99.90;;;;;;480230;247;27490;-77
2023/03/06 10:02:49;;;;;;;24.08;15.30;;;3.10;99.90;;;;;;477046;248;27446;-77
2023/03/06 10:04:50;;;;;;;28.38;16.73;;;3.10;99.90;;;;;;480201;246;28703;-78
2023/03/06 10:06:52;;;;;;;26.05;16.62;;;3.20;99.90;;;;;;477005;248;27831;-77
2023/03/06 10:08:53;;;;;;;26.33;17.10;;;3.30;99.90;;;;;;480263;246;27431;-78
2023/03/06 10:10:54;;;;;;;26.45;16.85;;;3.30;99.90;;;;;;477022;248;27315;-76
2023/03/06 10:12:55;;;;;;;24.95;16.40;;;3.40;99.90;;;;;;480213;246;27460;-76
2023/03/06 10:14:57;;;;;;;29.00;18.50;;;3.30;99.90;;;;;;477034;248;27326;-77
2023/03/06 10:16:58;;;;;;;26.87;18.08;;;3.30;99.90;;;;;;480226;245;27545;-77
2023/03/06 10:18:59;;;;;;;25.45;17.60;;;3.20;99.90;;;;;;477049;248;27936;-79
2023/03/06 10:21:01;;;;;;;25.90;17.85;;;3.20;99.90;;;;;;480229;246;27901;-77
2023/03/06 10:23:02;;;;;;;30.60;18.87;;;3.30;99.90;;;;;;477012;248;27367;-77
2023/03/06 10:25:03;;;;;;;31.80;18.17;;;3.30;99.90;;;;;;480212;246;27518;-79